Porto-Novo, Benin
Current Conditions -  °F | °C
As of 11:00 AM on Friday 19 Dec 2014 (Local Time) from DBBB Reporting Station
Scattered Clouds Scattered Clouds  
Wind Chill: 86°   Ceiling: Unl
Heat Index: 102°   Visibility: 4mi
Dew Point: 81°   Wind: 7mph
Humidity: 84%   Direction: 210°SSW
Pressure: 29.88"   Gusts: NA
Location:  6.48°N, 2.63°E
Report Text: DBBB 191000Z 21006KT 180V260 6000 SCT013 30/27 Q1012 NOSIG
Loading
Personal Weather Stations






























Interactive Weather Map New forecast layout! Learn more

10-Day Weather Forecast

Advertisements
Track Severe Weather on mobile